Time;durP1;ratioP1;P1;durP2;ratioP2;P2;SDS_P1;SDS_P2;PMS_P1;PMS_P2;Temp;Humidity;BMP_temperature;BMP_pressure;BME280_temperature;BME280_humidity;BME280_pressure;Samples;Min_cycle;Max_cycle;Signal;HPM_P1;HPM_P2
2023/03/12 00:01:49;;;;;;;9.97;4.57;;;1.40;99.90;;;;;;4992664;28;20062;-73
2023/03/12 00:04:14;;;;;;;9.17;4.70;;;1.40;99.90;;;;;;4994524;28;20037;-73
2023/03/12 00:06:40;;;;;;;10.00;4.27;;;1.40;99.90;;;;;;4992690;28;20472;-73
2023/03/12 00:09:07;;;;;;;8.30;4.20;;;1.40;99.90;;;;;;4994353;28;20026;-73
2023/03/12 00:11:33;;;;;;;10.77;4.33;;;1.30;99.90;;;;;;4993774;28;20026;-74
2023/03/12 00:13:59;;;;;;;6.33;4.10;;;1.30;99.90;;;;;;4994125;28;20106;-73
2023/03/12 00:16:25;;;;;;;7.30;3.90;;;1.30;99.90;;;;;;4993053;28;20057;-73
2023/03/12 00:18:52;;;;;;;10.10;4.00;;;1.30;99.90;;;;;;4992638;28;20070;-73
2023/03/12 00:21:20;;;;;;;6.33;3.20;;;1.30;99.90;;;;;;4994392;28;20030;-72
2023/03/12 00:23:46;;;;;;;8.27;3.63;;;1.30;99.90;;;;;;4992584;28;20030;-73
2023/03/12 00:26:13;;;;;;;8.07;3.63;;;1.20;99.90;;;;;;4994079;28;20050;-73
2023/03/12 00:28:39;;;;;;;8.27;3.87;;;1.20;99.90;;;;;;4992160;28;20080;-73
2023/03/12 00:31:26;;;;;;;8.57;3.70;;;1.20;99.90;;;;;;4994218;28;20498;-73
2023/03/12 00:33:52;;;;;;;6.77;3.50;;;1.20;99.90;;;;;;4992408;28;20033;-73
2023/03/12 00:36:22;;;;;;;7.80;3.67;;;1.10;99.90;;;;;;4992969;28;20159;-73
2023/03/12 00:38:48;;;;;;;8.53;3.83;;;1.20;99.90;;;;;;4993574;28;20061;-73
2023/03/12 00:41:13;;;;;;;7.57;3.63;;;1.20;99.90;;;;;;4993793;28;20082;-73
2023/03/12 00:43:39;;;;;;;6.97;3.87;;;1.20;99.90;;;;;;4992373;28;20038;-73
2023/03/12 00:46:04;;;;;;;10.30;3.93;;;1.20;99.90;;;;;;4992727;28;20073;-73
2023/03/12 00:48:30;;;;;;;9.10;3.67;;;1.20;99.90;;;;;;4992442;28;20487;-73
2023/03/12 00:50:56;;;;;;;5.80;3.30;;;1.30;99.90;;;;;;4988634;28;20030;-73
2023/03/12 00:53:22;;;;;;;5.97;3.37;;;1.30;99.90;;;;;;5003764;28;20031;-73
2023/03/12 00:55:47;;;;;;;7.90;3.20;;;1.40;99.90;;;;;;4969300;28;20054;-75
2023/03/12 00:58:13;;;;;;;10.40;3.57;;;1.40;99.90;;;;;;4977754;28;20026;-74
2023/03/12 01:00:38;;;;;;;8.77;3.97;;;1.40;99.90;;;;;;4990646;28;20538;-75
2023/03/12 01:03:04;;;;;;;6.07;3.53;;;1.50;99.90;;;;;;4979289;28;20038;-76
2023/03/12 01:05:30;;;;;;;8.60;3.40;;;1.40;99.90;;;;;;4972775;28;20066;-75
2023/03/12 01:07:56;;;;;;;9.53;3.00;;;1.40;99.90;;;;;;4972248;28;20376;-74
2023/03/12 01:10:22;;;;;;;5.87;3.30;;;1.40;99.90;;;;;;4973900;28;20031;-74
2023/03/12 01:12:47;;;;;;;4.63;3.00;;;1.40;99.90;;;;;;4980719;28;20029;-75
2023/03/12 01:15:15;;;;;;;6.40;3.03;;;1.40;99.90;;;;;;4981080;28;20481;-75
2023/03/12 01:17:41;;;;;;;5.13;2.87;;;1.40;99.90;;;;;;4987201;28;20030;-75
2023/03/12 01:20:08;;;;;;;4.80;2.70;;;1.30;99.90;;;;;;4976443;28;20093;-74
2023/03/12 01:22:34;;;;;;;6.97;2.70;;;1.30;99.90;;;;;;4991792;28;20038;-82
2023/03/12 01:25:00;;;;;;;5.83;2.87;;;1.20;99.90;;;;;;4983485;28;20023;-76
2023/03/12 01:27:25;;;;;;;5.43;2.90;;;1.30;99.90;;;;;;4980392;28;20034;-74
2023/03/12 01:29:51;;;;;;;8.93;3.13;;;1.30;99.90;;;;;;4979161;28;20031;-75
2023/03/12 01:32:17;;;;;;;9.10;3.50;;;1.20;99.90;;;;;;4972900;28;20097;-73
2023/03/12 01:34:43;;;;;;;9.03;3.20;;;1.20;99.90;;;;;;4972506;28;20027;-73
2023/03/12 01:37:09;;;;;;;9.70;4.00;;;1.20;99.90;;;;;;4976887;28;20039;-74
2023/03/12 01:39:34;;;;;;;5.40;2.87;;;1.10;99.90;;;;;;4972190;28;20093;-75
2023/03/12 01:42:00;;;;;;;5.63;3.63;;;1.10;99.90;;;;;;4974634;28;20030;-74
2023/03/12 01:44:26;;;;;;;8.33;3.37;;;1.00;99.90;;;;;;4976528;28;20173;-74
2023/03/12 01:46:52;;;;;;;5.63;3.10;;;1.00;99.90;;;;;;4975537;28;20499;-74
2023/03/12 01:49:28;;;;;;;7.87;3.50;;;1.10;99.90;;;;;;4976599;28;20122;-74
2023/03/12 01:52:05;;;;;;;7.20;3.60;;;1.00;99.90;;;;;;4976212;28;20568;-74
2023/03/12 01:54:36;;;;;;;10.40;3.50;;;1.10;99.90;;;;;;4976970;28;20118;-74
2023/03/12 01:57:03;;;;;;;7.53;3.57;;;1.10;99.90;;;;;;4976311;28;20073;-74
2023/03/12 01:59:35;;;;;;;5.43;2.70;;;1.00;99.90;;;;;;4976527;28;20050;-74
2023/03/12 02:02:02;;;;;;;4.93;2.80;;;1.00;99.90;;;;;;4975917;28;20031;-74
2023/03/12 02:04:31;;;;;;;5.70;2.93;;;1.00;99.90;;;;;;4977360;28;20030;-74
2023/03/12 02:07:08;;;;;;;5.47;2.93;;;0.90;99.90;;;;;;4975460;28;20027;-74
2023/03/12 02:09:38;;;;;;;7.13;3.40;;;1.00;99.90;;;;;;4977470;28;20038;-74
2023/03/12 02:12:04;;;;;;;7.73;3.47;;;1.00;99.90;;;;;;4977441;28;20031;-74
2023/03/12 02:14:30;;;;;;;7.60;3.03;;;1.00;99.90;;;;;;4976254;28;20053;-74
2023/03/12 02:16:56;;;;;;;6.77;3.07;;;1.00;99.90;;;;;;4975506;28;20646;-74
2023/03/12 02:19:51;;;;;;;7.60;3.43;;;1.00;99.90;;;;;;4976000;28;20027;-74
2023/03/12 02:22:17;;;;;;;7.30;3.23;;;1.00;99.90;;;;;;4977115;28;20045;-76
2023/03/12 02:25:11;;;;;;;6.90;3.50;;;1.00;99.90;;;;;;4975848;28;20027;-75
2023/03/12 02:27:38;;;;;;;7.37;3.77;;;1.00;99.90;;;;;;4975941;28;20030;-82
2023/03/12 02:30:04;;;;;;;9.40;3.80;;;1.10;99.90;;;;;;4975700;28;20046;-76
2023/03/12 02:32:35;;;;;;;7.83;3.30;;;1.10;99.90;;;;;;4976078;28;20027;-75
2023/03/12 02:35:02;;;;;;;7.87;3.83;;;1.10;99.90;;;;;;4975806;28;20030;-76
2023/03/12 02:37:27;;;;;;;7.90;3.43;;;1.10;99.90;;;;;;4977187;28;20031;-76
2023/03/12 02:40:21;;;;;;;7.30;3.20;;;1.20;99.90;;;;;;4975362;28;20399;-76
2023/03/12 02:42:47;;;;;;;9.83;3.80;;;1.20;99.90;;;;;;4975886;28;20073;-77
2023/03/12 02:45:13;;;;;;;6.77;2.93;;;1.20;99.90;;;;;;4977001;28;20062;-76
2023/03/12 02:47:38;;;;;;;6.27;3.00;;;1.30;99.90;;;;;;4975391;28;20061;-80
2023/03/12 02:50:04;;;;;;;7.03;3.23;;;1.30;99.90;;;;;;4975378;28;20391;-75
2023/03/12 02:52:34;;;;;;;6.73;3.03;;;1.30;99.90;;;;;;4975523;28;20086;-76
2023/03/12 02:55:00;;;;;;;6.03;3.10;;;1.40;99.90;;;;;;4975235;28;20023;-76
2023/03/12 02:57:25;;;;;;;6.37;3.03;;;1.30;99.90;;;;;;4975393;28;20451;-75
2023/03/12 02:59:51;;;;;;;6.33;3.03;;;1.40;99.90;;;;;;4976442;28;20023;-76
2023/03/12 03:02:16;;;;;;;8.10;3.20;;;1.40;99.90;;;;;;4975594;28;20480;-75
2023/03/12 03:04:42;;;;;;;6.00;2.90;;;1.50;99.90;;;;;;4974874;28;20038;-77
2023/03/12 03:07:08;;;;;;;9.83;3.30;;;1.50;99.90;;;;;;4976652;28;20037;-75
2023/03/12 03:09:33;;;;;;;8.93;3.63;;;1.50;99.90;;;;;;4976755;28;20113;-75
2023/03/12 03:11:59;;;;;;;6.87;3.30;;;1.50;99.90;;;;;;4976292;28;20081;-75
2023/03/12 03:14:24;;;;;;;6.37;3.27;;;1.50;99.90;;;;;;4975041;28;20353;-75
2023/03/12 03:16:50;;;;;;;9.13;3.50;;;1.60;99.90;;;;;;4975703;28;20031;-75
2023/03/12 03:19:16;;;;;;;6.63;3.10;;;1.60;99.90;;;;;;4978204;28;20038;-75
2023/03/12 03:21:42;;;;;;;7.67;3.90;;;1.60;99.90;;;;;;4994062;28;20043;-80
2023/03/12 03:24:08;;;;;;;8.37;3.10;;;1.70;99.90;;;;;;4995867;28;20112;-75
2023/03/12 03:26:34;;;;;;;9.97;3.20;;;1.70;99.90;;;;;;4995452;28;20062;-75
2023/03/12 03:28:59;;;;;;;4.10;2.90;;;1.70;99.90;;;;;;4994842;28;20038;-75
2023/03/12 03:31:25;;;;;;;6.13;3.17;;;1.70;99.90;;;;;;4995236;28;20038;-74
2023/03/12 03:33:51;;;;;;;5.77;2.80;;;1.70;99.90;;;;;;4994559;28;20022;-75
2023/03/12 03:36:17;;;;;;;9.03;3.27;;;1.70;99.90;;;;;;4993652;28;20026;-75
2023/03/12 03:38:48;;;;;;;5.17;3.20;;;1.80;99.90;;;;;;4993488;28;20031;-83
2023/03/12 03:41:18;;;;;;;4.93;3.00;;;1.80;99.90;;;;;;4993677;28;20725;-75
2023/03/12 03:43:43;;;;;;;9.83;3.20;;;1.80;99.90;;;;;;4993401;28;20120;-79
2023/03/12 03:46:11;;;;;;;4.87;2.67;;;1.80;99.90;;;;;;4994629;28;20472;-75
2023/03/12 03:48:37;;;;;;;6.90;2.47;;;1.80;99.90;;;;;;4994831;28;20513;-75
2023/03/12 03:51:05;;;;;;;5.90;2.93;;;1.80;99.90;;;;;;4993069;28;20120;-75
2023/03/12 03:53:31;;;;;;;4.73;2.90;;;1.80;99.90;;;;;;4995032;28;20084;-75
2023/03/12 03:55:57;;;;;;;5.57;3.00;;;1.80;99.90;;;;;;4992497;28;20077;-75
2023/03/12 03:58:23;;;;;;;8.73;3.20;;;1.70;99.90;;;;;;4993430;28;20368;-74
2023/03/12 04:00:48;;;;;;;5.90;3.00;;;1.80;99.90;;;;;;4992812;28;20037;-75
2023/03/12 04:03:14;;;;;;;6.63;2.83;;;1.80;99.90;;;;;;4993237;28;20479;-75
2023/03/12 04:05:43;;;;;;;5.83;2.70;;;1.80;99.90;;;;;;4992503;28;20456;-75
2023/03/12 04:08:10;;;;;;;7.17;2.53;;;1.90;99.90;;;;;;4993071;28;20027;-75
2023/03/12 04:10:36;;;;;;;7.83;3.20;;;1.90;99.90;;;;;;4993343;28;20080;-74
2023/03/12 04:13:02;;;;;;;5.73;3.03;;;2.00;99.90;;;;;;4994000;28;20121;-75
2023/03/12 04:15:28;;;;;;;6.50;3.27;;;2.10;99.90;;;;;;4993202;28;20034;-73
2023/03/12 04:17:53;;;;;;;6.97;2.80;;;2.10;99.90;;;;;;4992527;28;20038;-75
2023/03/12 04:20:19;;;;;;;6.70;2.50;;;2.20;99.90;;;;;;4994203;28;20488;-75
2023/03/12 04:22:44;;;;;;;5.10;2.40;;;2.20;99.90;;;;;;4993926;28;20030;-78
2023/03/12 04:25:10;;;;;;;6.90;2.40;;;2.20;99.90;;;;;;4994402;28;20022;-75
2023/03/12 04:27:36;;;;;;;5.90;2.87;;;2.20;99.90;;;;;;4993018;28;20031;-75
2023/03/12 04:30:03;;;;;;;5.07;2.20;;;2.20;99.90;;;;;;4992450;28;20031;-75
2023/03/12 04:32:29;;;;;;;5.83;2.43;;;2.20;99.90;;;;;;4993368;28;20034;-75
2023/03/12 04:34:54;;;;;;;6.57;2.70;;;2.20;99.90;;;;;;4993207;28;20033;-75
2023/03/12 04:37:20;;;;;;;6.30;2.83;;;2.30;99.90;;;;;;4994311;28;20073;-75
2023/03/12 04:39:46;;;;;;;3.87;2.57;;;2.30;99.90;;;;;;4992140;28;20034;-82
2023/03/12 04:42:11;;;;;;;3.77;2.37;;;2.30;99.90;;;;;;4992234;28;20038;-75
2023/03/12 04:44:37;;;;;;;4.30;2.50;;;2.30;99.90;;;;;;4994043;28;20100;-75
2023/03/12 04:47:03;;;;;;;3.83;2.40;;;2.30;99.90;;;;;;4993177;28;20531;-75
2023/03/12 04:49:29;;;;;;;6.23;2.47;;;2.40;99.90;;;;;;4992405;28;20117;-76
2023/03/12 04:51:55;;;;;;;8.93;2.67;;;2.40;99.90;;;;;;4993079;28;20464;-76
2023/03/12 04:54:21;;;;;;;4.93;2.40;;;2.40;99.90;;;;;;4992545;28;20026;-75
2023/03/12 04:56:48;;;;;;;6.30;2.63;;;2.50;99.90;;;;;;4992176;28;20492;-81
2023/03/12 04:59:13;;;;;;;5.83;2.37;;;2.50;99.90;;;;;;4993762;28;20227;-75
2023/03/12 05:01:39;;;;;;;4.63;2.60;;;2.40;99.90;;;;;;4992695;28;20034;-75
2023/03/12 05:04:05;;;;;;;7.33;2.53;;;2.50;99.90;;;;;;4992263;28;20053;-76
2023/03/12 05:06:32;;;;;;;7.77;2.50;;;2.50;99.90;;;;;;4993760;28;20060;-76
2023/03/12 05:08:57;;;;;;;5.57;2.70;;;2.50;99.90;;;;;;4993491;28;20041;-76
2023/03/12 05:11:23;;;;;;;7.83;2.57;;;2.40;99.90;;;;;;4992584;28;20030;-76
2023/03/12 05:13:49;;;;;;;4.33;2.27;;;2.50;99.90;;;;;;4992174;28;20084;-80
2023/03/12 05:16:16;;;;;;;7.10;2.60;;;2.40;99.90;;;;;;4992241;28;20038;-75
2023/03/12 05:18:42;;;;;;;5.37;2.93;;;2.50;99.90;;;;;;4992195;28;20467;-74
2023/03/12 05:21:18;;;;;;;4.00;2.80;;;2.40;99.90;;;;;;4992744;28;20181;-75
2023/03/12 05:23:44;;;;;;;5.50;3.00;;;2.40;99.90;;;;;;4992335;28;20037;-74
2023/03/12 05:26:20;;;;;;;8.20;2.63;;;2.50;99.90;;;;;;4993034;28;20019;-75
2023/03/12 05:28:46;;;;;;;7.37;3.00;;;2.40;99.90;;;;;;4993679;28;20023;-75
2023/03/12 05:31:13;;;;;;;4.10;2.37;;;2.40;99.90;;;;;;4993095;28;20030;-75
2023/03/12 05:33:38;;;;;;;6.77;2.50;;;2.40;99.90;;;;;;4993388;28;20031;-74
2023/03/12 05:36:04;;;;;;;7.00;2.50;;;2.40;99.90;;;;;;4991549;28;20121;-75
2023/03/12 05:38:30;;;;;;;6.10;2.53;;;2.50;99.90;;;;;;4991956;28;20026;-74
2023/03/12 05:40:58;;;;;;;6.93;2.73;;;2.50;99.90;;;;;;4992884;28;20098;-74
2023/03/12 05:43:24;;;;;;;5.93;2.13;;;2.50;99.90;;;;;;4992197;28;20060;-74
2023/03/12 05:45:50;;;;;;;5.70;2.43;;;2.50;99.90;;;;;;4991716;28;20031;-75
2023/03/12 05:48:16;;;;;;;4.00;2.10;;;2.60;99.90;;;;;;4993200;28;20089;-74
2023/03/12 05:50:42;;;;;;;4.47;2.20;;;2.60;99.90;;;;;;4993211;28;20030;-75
2023/03/12 05:53:08;;;;;;;9.00;2.70;;;2.50;99.90;;;;;;4978604;28;20058;-76
2023/03/12 05:55:36;;;;;;;6.53;2.33;;;2.50;99.90;;;;;;4987410;28;20398;-75
2023/03/12 05:58:03;;;;;;;4.43;2.20;;;2.50;99.90;;;;;;4985844;28;20477;-75
2023/03/12 06:00:28;;;;;;;5.67;2.77;;;2.50;99.90;;;;;;4985765;28;20034;-74
2023/03/12 06:02:54;;;;;;;5.63;2.53;;;2.60;99.90;;;;;;4991228;28;20081;-75
2023/03/12 06:05:20;;;;;;;7.07;2.50;;;2.60;99.90;;;;;;4991783;28;20032;-75
2023/03/12 06:07:45;;;;;;;5.13;2.47;;;2.60;99.90;;;;;;4991638;28;20033;-75
2023/03/12 06:10:11;;;;;;;5.63;2.60;;;2.60;99.90;;;;;;4992774;28;20110;-80
2023/03/12 06:12:37;;;;;;;3.93;2.30;;;2.60;99.90;;;;;;4991385;28;20022;-75
2023/03/12 06:15:03;;;;;;;4.87;2.27;;;2.60;99.90;;;;;;4992119;28;20460;-74
2023/03/12 06:17:30;;;;;;;5.13;2.40;;;2.60;99.90;;;;;;4990539;28;20034;-75
2023/03/12 06:19:56;;;;;;;4.37;2.40;;;2.60;99.90;;;;;;4986389;28;20105;-75
2023/03/12 06:22:22;;;;;;;4.93;2.10;;;2.70;99.90;;;;;;4990923;28;20630;-75
2023/03/12 06:24:48;;;;;;;7.53;2.30;;;2.80;99.90;;;;;;4991196;28;20034;-75
2023/03/12 06:27:15;;;;;;;6.00;2.53;;;2.80;99.90;;;;;;4993115;28;20037;-74
2023/03/12 06:29:40;;;;;;;5.10;2.20;;;2.80;99.90;;;;;;4995267;28;20081;-76
2023/03/12 06:32:06;;;;;;;7.40;2.57;;;2.80;99.90;;;;;;4994612;28;20416;-75
2023/03/12 06:34:32;;;;;;;6.23;2.60;;;2.80;99.90;;;;;;4995010;28;20117;-76
2023/03/12 06:36:58;;;;;;;4.23;2.47;;;2.80;99.90;;;;;;5005849;28;20105;-76
2023/03/12 06:39:24;;;;;;;7.20;2.80;;;2.80;99.90;;;;;;4993011;28;20040;-76
2023/03/12 06:41:49;;;;;;;6.33;2.30;;;2.80;99.90;;;;;;4994615;28;20037;-80
2023/03/12 06:44:15;;;;;;;3.97;2.23;;;2.90;99.90;;;;;;4994713;28;20034;-75
2023/03/12 06:46:42;;;;;;;7.00;2.63;;;2.90;99.90;;;;;;4994377;28;20034;-77
2023/03/12 06:49:09;;;;;;;6.10;2.60;;;2.90;99.90;;;;;;5010175;28;20053;-77
2023/03/12 06:51:34;;;;;;;4.70;2.17;;;3.00;99.90;;;;;;4993965;28;20092;-76
2023/03/12 06:54:01;;;;;;;5.13;2.50;;;3.00;99.90;;;;;;4978336;28;20425;-76
2023/03/12 06:56:27;;;;;;;8.00;2.20;;;3.00;99.90;;;;;;4990625;28;20050;-76
2023/03/12 06:58:53;;;;;;;4.03;2.30;;;3.00;99.90;;;;;;4993482;28;20109;-84
2023/03/12 07:01:18;;;;;;;8.63;3.93;;;3.10;99.90;;;;;;4993643;28;20543;-76
2023/03/12 07:03:44;;;;;;;6.87;3.70;;;3.20;99.90;;;;;;4995665;28;20041;-76
2023/03/12 07:06:18;;;;;;;7.80;2.97;;;3.20;99.90;;;;;;4995368;28;20046;-76
2023/03/12 07:08:45;;;;;;;5.53;3.10;;;3.30;99.90;;;;;;4994154;28;20113;-76
2023/03/12 07:11:11;;;;;;;4.47;2.60;;;3.20;99.90;;;;;;4994494;28;20038;-75
2023/03/12 07:13:37;;;;;;;8.33;3.43;;;3.20;99.90;;;;;;4992393;28;20464;-75
2023/03/12 07:16:04;;;;;;;8.17;3.07;;;3.30;99.90;;;;;;4985331;28;20046;-75
2023/03/12 07:18:29;;;;;;;6.50;2.63;;;3.30;99.90;;;;;;4994742;28;20018;-75
2023/03/12 07:20:55;;;;;;;6.67;2.93;;;3.40;99.90;;;;;;4992395;28;20034;-76
2023/03/12 07:23:21;;;;;;;6.67;3.30;;;3.30;99.90;;;;;;4992986;28;20042;-75
2023/03/12 07:25:48;;;;;;;4.83;3.17;;;3.40;99.90;;;;;;4984277;28;20038;-76
2023/03/12 07:28:15;;;;;;;6.13;3.00;;;3.40;99.90;;;;;;4990544;28;20243;-75
2023/03/12 07:30:40;;;;;;;8.30;3.40;;;3.40;99.90;;;;;;4993091;28;20479;-75
2023/03/12 07:33:11;;;;;;;11.70;3.67;;;3.40;99.90;;;;;;4994148;28;20023;-75
2023/03/12 07:35:37;;;;;;;7.23;3.47;;;3.40;99.90;;;;;;4993259;28;20018;-75
2023/03/12 07:38:03;;;;;;;7.63;3.77;;;3.40;99.90;;;;;;4984961;28;20052;-76
2023/03/12 07:40:30;;;;;;;7.13;3.53;;;3.30;99.90;;;;;;4992849;28;20022;-75
2023/03/12 07:42:56;;;;;;;6.57;3.23;;;3.40;99.90;;;;;;4993017;28;20034;-76
2023/03/12 07:45:22;;;;;;;7.80;3.33;;;3.40;99.90;;;;;;4994468;28;20038;-75
2023/03/12 07:47:48;;;;;;;8.17;3.50;;;3.30;99.90;;;;;;4993646;28;20027;-75
2023/03/12 07:50:15;;;;;;;8.63;4.00;;;3.30;99.90;;;;;;4993959;28;20464;-76
2023/03/12 07:52:41;;;;;;;5.07;3.10;;;3.30;99.90;;;;;;4993221;28;20023;-76
2023/03/12 07:55:07;;;;;;;4.33;2.53;;;3.30;99.90;;;;;;4988102;28;20113;-75
2023/03/12 07:57:33;;;;;;;6.77;3.20;;;3.30;99.90;;;;;;4994361;28;20022;-76
2023/03/12 07:59:59;;;;;;;5.10;2.90;;;3.30;99.90;;;;;;4993518;28;20033;-76
2023/03/12 08:02:24;;;;;;;6.50;3.00;;;3.20;99.90;;;;;;4976818;28;20040;-76
2023/03/12 08:04:50;;;;;;;5.80;2.90;;;3.20;99.90;;;;;;4976737;28;20045;-77
2023/03/12 08:07:15;;;;;;;5.77;2.90;;;3.20;99.90;;;;;;4976001;28;20100;-77
2023/03/12 08:09:41;;;;;;;4.93;2.80;;;3.30;99.90;;;;;;4968548;28;20068;-77
2023/03/12 08:12:07;;;;;;;8.20;3.30;;;3.40;99.90;;;;;;4976622;28;20042;-77
2023/03/12 08:14:34;;;;;;;6.70;3.10;;;3.40;99.90;;;;;;4973802;28;20165;-78
2023/03/12 08:17:00;;;;;;;7.67;3.50;;;3.40;99.90;;;;;;4993660;28;20096;-77
2023/03/12 08:19:27;;;;;;;7.13;3.17;;;3.50;99.90;;;;;;4977175;28;20027;-78
2023/03/12 08:21:53;;;;;;;5.37;3.17;;;3.50;99.90;;;;;;4972397;28;20042;-83
2023/03/12 08:24:20;;;;;;;4.67;3.23;;;3.50;99.90;;;;;;4980960;28;20113;-77
2023/03/12 08:26:47;;;;;;;8.60;3.53;;;3.50;99.90;;;;;;4970556;28;20030;-76
2023/03/12 08:29:12;;;;;;;8.47;3.23;;;3.40;99.90;;;;;;4975080;28;20542;-76
2023/03/12 08:31:38;;;;;;;5.17;2.67;;;3.40;99.90;;;;;;4971763;28;20038;-77
2023/03/12 08:34:04;;;;;;;4.83;2.67;;;3.30;99.90;;;;;;4968273;28;20503;-76
2023/03/12 08:36:29;;;;;;;5.63;2.60;;;3.20;99.90;;;;;;4967007;28;20033;-76
2023/03/12 08:38:55;;;;;;;5.93;2.77;;;3.30;99.90;;;;;;4971845;28;20030;-81
2023/03/12 08:41:21;;;;;;;8.50;3.27;;;3.30;99.90;;;;;;4963453;28;20058;-75
2023/03/12 08:43:46;;;;;;;5.53;3.37;;;3.40;99.90;;;;;;4973725;28;20377;-80
2023/03/12 08:46:12;;;;;;;8.37;3.57;;;3.40;99.90;;;;;;4966827;28;20035;-77
2023/03/12 08:48:38;;;;;;;6.83;3.40;;;3.50;99.90;;;;;;4964004;28;20022;-76
2023/03/12 08:51:06;;;;;;;8.97;3.53;;;3.50;99.90;;;;;;4971229;28;20108;-76
2023/03/12 08:53:33;;;;;;;8.33;3.50;;;3.40;99.90;;;;;;4971880;28;20019;-79
2023/03/12 08:56:00;;;;;;;7.77;3.83;;;3.40;99.90;;;;;;4971050;28;20050;-80
2023/03/12 08:58:25;;;;;;;6.03;3.30;;;3.30;99.90;;;;;;4993715;28;20023;-77
2023/03/12 09:00:53;;;;;;;7.90;3.30;;;3.20;99.90;;;;;;4976673;28;20026;-77
2023/03/12 09:03:20;;;;;;;7.13;3.37;;;3.30;99.90;;;;;;4976562;28;20027;-77
2023/03/12 09:05:47;;;;;;;6.17;2.83;;;3.40;99.90;;;;;;4973398;28;20027;-78
2023/03/12 09:08:13;;;;;;;5.43;3.20;;;3.50;99.90;;;;;;4973435;28;20033;-77
2023/03/12 09:10:39;;;;;;;5.63;3.30;;;3.60;99.90;;;;;;4966475;28;20486;-76
2023/03/12 09:13:06;;;;;;;7.80;3.90;;;3.70;99.90;;;;;;4988501;28;20045;-76
2023/03/12 09:15:32;;;;;;;9.07;4.83;;;3.80;99.90;;;;;;4976123;28;20042;-75
2023/03/12 09:17:57;;;;;;;12.80;5.07;;;3.70;99.90;;;;;;4993933;28;20436;-76
2023/03/12 09:20:24;;;;;;;10.03;4.70;;;3.70;99.90;;;;;;4989062;28;20033;-77
2023/03/12 09:22:50;;;;;;;8.77;4.83;;;3.70;99.90;;;;;;4978809;28;20035;-77
2023/03/12 09:25:16;;;;;;;8.23;5.40;;;3.70;99.90;;;;;;4964464;28;20045;-76
2023/03/12 09:27:44;;;;;;;10.13;5.40;;;3.80;99.90;;;;;;4975863;28;20077;-76
2023/03/12 09:30:13;;;;;;;10.27;6.17;;;3.90;99.90;;;;;;4956944;28;20134;-76
2023/03/12 09:32:39;;;;;;;9.33;5.87;;;3.90;99.90;;;;;;4980493;28;20035;-77
2023/03/12 09:35:06;;;;;;;11.57;5.93;;;4.00;99.90;;;;;;4972220;28;20077;-79
2023/03/12 09:37:32;;;;;;;8.77;6.40;;;4.00;99.90;;;;;;4972798;28;20030;-77
2023/03/12 09:39:58;;;;;;;9.07;5.63;;;4.00;99.90;;;;;;4969464;28;20387;-77
2023/03/12 09:42:42;;;;;;;10.80;6.77;;;4.00;99.90;;;;;;4975868;28;20034;-77
2023/03/12 09:45:17;;;;;;;9.47;6.07;;;4.10;99.90;;;;;;4990053;28;20039;-79
2023/03/12 09:47:48;;;;;;;11.23;6.37;;;4.10;99.90;;;;;;4992981;28;20018;-74
2023/03/12 09:50:32;;;;;;;9.82;6.10;;;4.20;99.90;;;;;;4970659;28;20125;-76
2023/03/12 09:53:02;;;;;;;9.33;5.87;;;4.30;99.90;;;;;;4974562;28;20034;-77
2023/03/12 09:55:37;;;;;;;9.30;6.10;;;4.40;99.90;;;;;;4965174;28;20053;-77
2023/03/12 09:58:02;;;;;;;8.27;5.90;;;4.50;99.90;;;;;;4969414;28;20018;-78
2023/03/12 10:00:34;;;;;;;10.77;5.73;;;4.50;99.90;;;;;;4975485;28;20081;-76
2023/03/12 10:03:24;;;;;;;9.65;5.97;;;4.60;99.90;;;;;;4991119;28;20476;-78
2023/03/12 10:06:14;;;;;;;8.30;6.07;;;4.80;99.90;;;;;;4978163;28;20476;-77
2023/03/12 10:09:04;;;;;;;8.07;6.27;;;4.80;99.90;;;;;;4969819;28;20113;-77
2023/03/12 10:12:02;;;;;;;7.93;5.87;;;4.90;99.90;;;;;;4974802;28;20059;-76
2023/03/12 10:14:37;;;;;;;11.30;6.47;;;5.00;99.90;;;;;;4953648;28;20050;-75
2023/03/12 10:17:25;;;;;;;9.80;6.40;;;5.10;99.90;;;;;;4979016;28;20030;-76
2023/03/12 10:20:15;;;;;;;11.13;5.87;;;5.20;99.90;;;;;;4979015;28;20057;-76
2023/03/12 10:22:57;;;;;;;9.70;6.37;;;5.30;99.90;;;;;;4989204;28;20049;-79
2023/03/12 10:25:57;;;;;;;10.80;6.65;;;5.40;99.90;;;;;;4979584;28;20081;-79
2023/03/12 10:28:47;;;;;;;10.73;6.77;;;5.50;99.90;;;;;;4970944;28;20439;-80
2023/03/12 10:31:47;;;;;;;9.83;6.47;;;5.60;99.90;;;;;;4967911;28;20651;-79
2023/03/12 10:34:38;;;;;;;12.70;6.77;;;5.90;99.90;;;;;;4953047;28;20041;-82
2023/03/12 10:37:27;;;;;;;10.00;6.13;;;6.00;99.90;;;;;;4976201;28;20026;-78
2023/03/12 10:39:54;;;;;;;11.97;6.50;;;6.00;99.90;;;;;;4988419;28;20030;-81
2023/03/12 10:42:22;;;;;;;10.30;6.60;;;6.30;99.90;;;;;;4971469;28;20042;-77
2023/03/12 10:45:11;;;;;;;9.50;6.57;;;6.40;99.90;;;;;;4966514;28;20109;-78
2023/03/12 10:47:38;;;;;;;8.97;6.73;;;6.40;99.90;;;;;;4991168;28;20037;-76
2023/03/12 10:50:31;;;;;;;12.03;7.17;;;6.50;99.90;;;;;;4973703;28;20109;-75
2023/03/12 10:53:25;;;;;;;13.80;6.70;;;6.60;99.90;;;;;;4974953;28;20034;-77
2023/03/12 10:55:58;;;;;;;9.53;6.40;;;6.80;99.90;;;;;;4970514;28;20046;-76
2023/03/12 10:58:25;;;;;;;10.10;6.30;;;6.90;99.90;;;;;;4994443;28;20490;-78
2023/03/12 11:00:56;;;;;;;12.10;6.40;;;6.90;99.90;;;;;;4994180;28;20103;-79
2023/03/12 11:03:22;;;;;;;11.50;6.68;;;7.00;99.90;;;;;;4994103;28;20029;-78
2023/03/12 11:05:50;;;;;;;8.57;6.17;;;7.10;99.90;;;;;;4986956;28;20030;-78
2023/03/12 11:08:26;;;;;;;9.80;5.80;;;7.30;99.90;;;;;;4985752;28;20038;-76
2023/03/12 11:10:54;;;;;;;14.00;6.03;;;7.50;99.90;;;;;;4990284;28;20607;-76
2023/03/12 11:13:21;;;;;;;13.83;6.07;;;7.60;99.90;;;;;;4988646;28;20030;-74
2023/03/12 11:15:47;;;;;;;10.67;6.00;;;7.70;99.90;;;;;;4989678;28;20035;-74
2023/03/12 11:18:32;;;;;;;9.47;5.20;;;7.90;99.90;;;;;;4987438;28;20525;-74
2023/03/12 11:21:07;;;;;;;10.57;5.57;;;7.90;99.90;;;;;;4987631;28;20081;-74
2023/03/12 11:23:33;;;;;;;10.30;6.10;;;7.90;99.90;;;;;;4994597;28;20472;-75
2023/03/12 11:26:11;;;;;;;10.43;5.57;;;7.90;99.90;;;;;;4992521;28;20072;-75
2023/03/12 11:28:41;;;;;;;11.47;5.60;;;7.90;99.90;;;;;;4982726;28;20030;-75
2023/03/12 11:31:32;;;;;;;10.57;6.07;;;8.00;99.90;;;;;;4993719;28;20038;-78
2023/03/12 11:34:04;;;;;;;11.07;5.93;;;8.00;99.90;;;;;;4979737;28;20014;-75
2023/03/12 11:36:55;;;;;;;9.20;5.30;;;8.10;99.90;;;;;;4993359;28;20027;-75
2023/03/12 11:39:29;;;;;;;10.67;5.30;;;8.20;99.90;;;;;;4991733;28;20026;-74
2023/03/12 11:42:00;;;;;;;10.67;5.53;;;8.30;99.90;;;;;;4983846;28;20037;-81
2023/03/12 11:45:17;;;;;;;12.52;5.30;;;8.50;99.90;;;;;;4993758;28;20143;-79
2023/03/12 11:48:12;;;;;;;8.80;5.43;;;8.70;99.90;;;;;;4955790;28;20049;-74
2023/03/12 11:51:07;;;;;;;9.52;4.85;;;8.90;99.90;;;;;;4993371;28;20044;-77
2023/03/12 11:54:03;;;;;;;12.20;5.38;;;9.10;99.90;;;;;;4983536;28;20038;-77
2023/03/12 11:56:34;;;;;;;15.15;5.10;;;9.30;99.90;;;;;;4983034;28;20129;-79
2023/03/12 11:59:12;;;;;;;10.63;4.97;;;9.50;99.90;;;;;;4957917;28;20031;-78
2023/03/12 12:02:15;;;;;;;9.18;4.70;;;9.60;99.90;;;;;;4948801;28;20026;-77
2023/03/12 12:04:41;;;;;;;9.35;4.95;;;9.80;99.90;;;;;;4974140;28;20460;-78
2023/03/12 12:07:12;;;;;;;9.27;4.07;;;10.00;99.90;;;;;;4956590;28;20027;-77
2023/03/12 12:10:10;;;;;;;8.35;3.97;;;10.10;99.90;;;;;;4957810;28;20023;-78
2023/03/12 12:12:40;;;;;;;10.20;3.60;;;10.20;99.90;;;;;;4957690;28;20038;-77
2023/03/12 12:15:13;;;;;;;8.25;3.72;;;10.40;99.90;;;;;;4956109;28;20129;-77
2023/03/12 12:17:38;;;;;;;10.43;3.85;;;10.60;99.90;;;;;;4969997;28;20026;-78
2023/03/12 12:20:20;;;;;;;5.30;2.50;;;10.90;99.90;;;;;;4953406;28;20039;-76
2023/03/12 12:23:20;;;;;;;7.13;2.95;;;11.10;99.90;;;;;;4943991;28;20062;-76
2023/03/12 12:26:00;;;;;;;6.97;2.80;;;11.30;99.90;;;;;;4949688;28;20042;-74
2023/03/12 12:28:47;;;;;;;6.97;2.67;;;11.20;99.90;;;;;;4956219;28;20472;-74
2023/03/12 12:31:22;;;;;;;6.43;2.20;;;11.30;99.90;;;;;;4950159;28;20483;-76
2023/03/12 12:34:02;;;;;;;6.13;2.25;;;11.30;99.90;;;;;;4972266;28;20496;-77
2023/03/12 12:36:32;;;;;;;5.25;2.00;;;11.40;99.90;;;;;;4959490;28;20030;-74
2023/03/12 12:39:13;;;;;;;3.80;1.77;;;11.40;99.90;;;;;;4956407;28;20031;-75
2023/03/12 12:41:44;;;;;;;3.90;1.85;;;11.40;99.90;;;;;;4946413;28;20034;-75
2023/03/12 12:44:32;;;;;;;8.48;1.92;;;11.50;99.90;;;;;;4956537;28;20543;-74
2023/03/12 12:47:02;;;;;;;6.00;1.98;;;11.60;99.90;;;;;;4953467;28;20039;-75
2023/03/12 12:49:37;;;;;;;8.38;2.08;;;11.60;99.90;;;;;;4956612;28;20070;-74
2023/03/12 12:52:06;;;;;;;7.35;1.65;;;11.90;99.90;;;;;;4951725;28;20049;-75
2023/03/12 12:55:05;;;;;;;4.75;1.58;;;12.30;99.90;;;;;;4973862;28;20119;-74
2023/03/12 12:57:44;;;;;;;6.13;1.90;;;12.60;99.90;;;;;;4964793;28;20149;-76
2023/03/12 13:00:13;;;;;;;4.82;1.85;;;13.00;99.90;;;;;;4988124;28;20135;-76
2023/03/12 13:02:41;;;;;;;8.77;1.70;;;13.30;99.90;;;;;;4968809;28;20034;-76
2023/03/12 13:05:36;;;;;;;6.22;1.88;;;13.20;99.90;;;;;;4976060;28;20395;-75
2023/03/12 13:08:03;;;;;;;10.70;2.05;;;12.90;99.90;;;;;;4966848;28;20064;-76
2023/03/12 13:10:31;;;;;;;8.25;1.83;;;12.60;99.90;;;;;;4989770;28;20023;-78